Time;durP1;ratioP1;P1;durP2;ratioP2;P2;SDS_P1;SDS_P2;PMS_P1;PMS_P2;Temp;Humidity;BMP_temperature;BMP_pressure;BME280_temperature;BME280_humidity;BME280_pressure;Samples;Min_cycle;Max_cycle;Signal;HPM_P1;HPM_P2
2022/04/22 00:01:55;;;;;;;13.50;9.00;;;12.10;67.40;;;;;;5101408;28;21055;-44
2022/04/22 00:04:22;;;;;;;12.67;9.53;;;12.10;67.40;;;;;;5097523;28;20887;-44
2022/04/22 00:06:48;;;;;;;12.40;9.60;;;12.10;67.50;;;;;;5099417;28;20957;-43
2022/04/22 00:09:15;;;;;;;14.17;11.50;;;12.10;67.70;;;;;;5096374;28;20463;-43
2022/04/22 00:11:42;;;;;;;13.73;10.33;;;12.10;67.70;;;;;;5098540;28;21033;-43
2022/04/22 00:14:09;;;;;;;15.87;10.03;;;12.10;68.00;;;;;;5100841;27;20454;-43
2022/04/22 00:16:35;;;;;;;14.17;10.03;;;12.10;67.70;;;;;;5101260;28;20467;-43
2022/04/22 00:19:02;;;;;;;13.87;9.90;;;12.10;67.80;;;;;;5086760;28;20562;-44
2022/04/22 00:21:29;;;;;;;12.67;9.10;;;12.10;67.70;;;;;;5102158;28;20483;-44
2022/04/22 00:23:56;;;;;;;14.37;10.50;;;12.10;67.90;;;;;;5096792;28;20455;-44
2022/04/22 00:26:22;;;;;;;13.93;9.73;;;12.10;67.90;;;;;;5090085;28;20459;-44
2022/04/22 00:28:51;;;;;;;17.27;11.00;;;12.00;68.00;;;;;;5084070;28;20786;-43
2022/04/22 00:31:18;;;;;;;14.60;10.73;;;12.00;68.10;;;;;;5103608;28;20809;-43
2022/04/22 00:33:46;;;;;;;15.60;11.43;;;12.00;68.10;;;;;;5085797;28;20728;-43
2022/04/22 00:36:12;;;;;;;15.97;11.07;;;11.90;68.20;;;;;;5087784;28;20552;-43
2022/04/22 00:38:39;;;;;;;15.03;10.47;;;11.90;68.30;;;;;;5101405;27;21110;-43
2022/04/22 00:41:06;;;;;;;18.60;11.83;;;12.00;68.50;;;;;;5102183;28;20463;-43
2022/04/22 00:43:45;;;;;;;16.63;12.10;;;11.90;68.40;;;;;;5096259;27;20458;-43
2022/04/22 00:46:12;;;;;;;19.00;11.50;;;11.90;68.50;;;;;;5087267;28;20459;-43
2022/04/22 00:48:39;;;;;;;14.17;11.80;;;11.90;68.70;;;;;;5081711;28;20464;-44
2022/04/22 00:51:08;;;;;;;18.40;10.87;;;11.80;68.70;;;;;;5104461;27;20481;-44
2022/04/22 00:53:35;;;;;;;14.33;10.50;;;11.80;68.80;;;;;;5095027;28;21109;-43
2022/04/22 00:56:04;;;;;;;17.10;12.67;;;11.80;68.90;;;;;;5089962;28;20472;-43
2022/04/22 00:58:32;;;;;;;16.47;12.17;;;11.80;69.00;;;;;;5100573;28;20453;-43
2022/04/22 01:00:59;;;;;;;19.47;12.00;;;11.80;69.00;;;;;;5100034;27;20504;-43
2022/04/22 01:03:25;;;;;;;16.60;12.43;;;11.80;69.20;;;;;;5098397;28;20547;-43
2022/04/22 01:11:32;;;;;;;15.60;11.70;;;11.70;69.30;;;;;;5096665;28;20473;-44
2022/04/22 01:14:07;;;;;;;18.07;12.37;;;11.70;69.50;;;;;;5093240;27;20458;-44
2022/04/22 01:16:34;;;;;;;16.00;13.03;;;11.70;69.50;;;;;;5098790;27;20466;-44
2022/04/22 01:19:02;;;;;;;19.17;13.20;;;11.70;69.50;;;;;;5103254;27;21030;-44
2022/04/22 01:21:28;;;;;;;14.93;12.47;;;11.70;69.50;;;;;;5099611;27;20486;-44
2022/04/22 01:23:55;;;;;;;22.87;13.60;;;11.60;69.70;;;;;;5086434;28;20459;-44
2022/04/22 01:26:22;;;;;;;19.47;13.20;;;11.60;69.70;;;;;;5100147;27;20816;-44
2022/04/22 01:28:51;;;;;;;17.80;12.33;;;11.60;69.80;;;;;;5098754;27;20455;-43
2022/04/22 01:31:21;;;;;;;17.10;12.77;;;11.60;69.80;;;;;;5097503;27;20509;-43
2022/04/22 01:33:48;;;;;;;16.50;12.50;;;11.60;69.70;;;;;;5098569;28;20513;-43
2022/04/22 01:36:16;;;;;;;22.33;13.40;;;11.60;70.00;;;;;;5098613;27;20518;-43
2022/04/22 01:38:42;;;;;;;18.30;12.73;;;11.50;70.20;;;;;;5102655;28;20540;-44
2022/04/22 01:41:09;;;;;;;20.60;12.43;;;11.60;70.10;;;;;;5100067;28;20463;-44
2022/04/22 01:43:36;;;;;;;20.97;12.77;;;11.60;70.00;;;;;;5084107;28;20455;-44
2022/04/22 01:46:04;;;;;;;17.83;12.97;;;11.50;70.10;;;;;;5099576;28;20973;-43
2022/04/22 01:48:31;;;;;;;17.43;12.07;;;11.50;70.20;;;;;;5082586;28;20467;-44
2022/04/22 01:50:58;;;;;;;21.53;13.17;;;11.50;70.30;;;;;;5078417;28;20464;-43
2022/04/22 01:53:25;;;;;;;20.03;13.23;;;11.50;70.40;;;;;;5091333;28;20994;-44
2022/04/22 01:55:52;;;;;;;18.37;13.07;;;11.50;70.30;;;;;;5100924;27;21045;-44
2022/04/22 01:58:19;;;;;;;18.90;12.93;;;11.50;70.40;;;;;;5084256;28;20462;-44
2022/04/22 02:00:46;;;;;;;22.43;14.37;;;11.50;70.40;;;;;;5101060;28;20470;-44
2022/04/22 02:03:12;;;;;;;20.03;12.10;;;11.40;70.50;;;;;;5097583;27;20494;-44
2022/04/22 02:05:40;;;;;;;19.93;14.13;;;11.40;70.50;;;;;;5099735;28;20462;-43
2022/04/22 02:08:08;;;;;;;17.50;14.23;;;11.40;70.50;;;;;;5084965;28;20467;-44
2022/04/22 02:10:35;;;;;;;17.50;13.60;;;11.40;70.80;;;;;;5093574;27;20450;-43
2022/04/22 02:13:02;;;;;;;23.67;13.40;;;11.40;70.90;;;;;;5099930;27;20509;-44
2022/04/22 02:15:28;;;;;;;18.97;15.07;;;11.40;70.90;;;;;;5099551;28;20463;-44
2022/04/22 02:17:56;;;;;;;19.73;12.30;;;11.30;71.00;;;;;;5084539;28;20457;-43
2022/04/22 02:20:22;;;;;;;24.43;14.30;;;11.30;71.00;;;;;;5095928;27;20958;-43
2022/04/22 02:22:49;;;;;;;17.57;13.13;;;11.30;71.10;;;;;;5096443;28;20486;-43
2022/04/22 02:25:16;;;;;;;19.03;12.43;;;11.20;71.10;;;;;;5101851;28;20458;-44
2022/04/22 02:30:28;;;;;;;16.60;13.27;;;11.20;71.50;;;;;;5096228;28;20837;-44
2022/04/22 02:32:56;;;;;;;21.57;13.60;;;11.20;71.30;;;;;;5096894;28;20455;-44
2022/04/22 02:35:22;;;;;;;20.40;13.53;;;11.20;71.50;;;;;;5098558;27;20554;-44
2022/04/22 02:37:50;;;;;;;23.20;15.43;;;11.20;71.60;;;;;;5098582;28;20467;-42
2022/04/22 02:45:49;;;;;;;20.87;13.80;;;11.10;71.80;;;;;;5093679;28;20459;-42
2022/04/22 02:48:16;;;;;;;21.40;14.00;;;11.10;71.90;;;;;;5092697;27;20459;-42
2022/04/22 02:50:43;;;;;;;22.37;15.13;;;11.10;72.00;;;;;;5091370;28;20461;-42
2022/04/22 02:53:10;;;;;;;23.60;14.57;;;11.10;71.90;;;;;;5096120;28;20469;-42
2022/04/22 02:55:40;;;;;;;21.70;14.13;;;11.10;72.10;;;;;;5100587;28;20458;-42
2022/04/22 02:58:07;;;;;;;20.53;14.23;;;11.10;72.00;;;;;;5098132;28;20463;-42
2022/04/22 03:00:33;;;;;;;20.97;13.87;;;11.10;72.00;;;;;;5097201;28;20469;-42
2022/04/22 03:03:01;;;;;;;24.60;14.97;;;11.10;72.00;;;;;;5097327;28;20494;-42
2022/04/22 03:05:28;;;;;;;23.40;14.47;;;11.10;72.00;;;;;;5080410;28;20468;-42
2022/04/22 03:07:55;;;;;;;24.67;15.57;;;11.10;72.20;;;;;;5100010;27;20447;-42
2022/04/22 03:10:22;;;;;;;18.50;13.17;;;11.00;72.20;;;;;;5079314;28;20476;-42
2022/04/22 03:12:49;;;;;;;19.23;13.70;;;11.00;72.20;;;;;;5096538;28;20477;-42
2022/04/22 03:15:16;;;;;;;22.67;14.37;;;11.00;72.30;;;;;;5079244;28;20477;-42
2022/04/22 03:17:43;;;;;;;20.23;14.07;;;11.00;72.30;;;;;;5101523;28;20461;-42
2022/04/22 03:20:11;;;;;;;19.20;13.53;;;11.00;72.30;;;;;;5095825;27;20469;-42
2022/04/22 03:22:37;;;;;;;19.87;14.20;;;11.00;72.40;;;;;;5099402;28;20490;-42
2022/04/22 03:25:05;;;;;;;20.93;14.10;;;11.00;72.50;;;;;;5100166;28;20490;-42
2022/04/22 03:27:31;;;;;;;22.67;15.60;;;11.00;72.40;;;;;;5098394;28;20462;-42
2022/04/22 03:29:58;;;;;;;22.73;13.93;;;11.00;72.60;;;;;;5098722;28;20463;-42
2022/04/22 03:32:25;;;;;;;24.00;15.67;;;11.00;72.60;;;;;;5096652;28;20474;-42
2022/04/22 03:34:51;;;;;;;22.40;14.30;;;10.90;72.70;;;;;;5095609;28;20467;-42
2022/04/22 03:37:18;;;;;;;23.77;14.17;;;10.90;72.90;;;;;;5098534;28;20470;-42
2022/04/22 03:39:45;;;;;;;22.17;13.97;;;10.90;72.80;;;;;;5095727;28;20464;-42
2022/04/22 03:42:12;;;;;;;18.50;13.43;;;11.00;72.60;;;;;;5098908;28;20526;-42
2022/04/22 03:44:38;;;;;;;20.97;14.30;;;10.90;72.70;;;;;;5096797;28;21126;-42
2022/04/22 03:47:07;;;;;;;23.00;14.97;;;10.90;72.80;;;;;;5085404;28;20454;-42
2022/04/22 03:49:34;;;;;;;21.67;15.17;;;10.90;72.90;;;;;;5100378;28;20459;-42
2022/04/22 03:52:00;;;;;;;21.67;14.63;;;10.90;72.80;;;;;;5082730;28;21080;-42
2022/04/22 03:54:27;;;;;;;19.33;13.20;;;10.90;72.90;;;;;;5101475;27;20466;-42
2022/04/22 03:59:39;;;;;;;26.57;14.47;;;10.90;73.20;;;;;;5102339;28;20460;-42
2022/04/22 04:02:07;;;;;;;20.60;14.30;;;10.80;73.30;;;;;;5096034;27;20491;-42
2022/04/22 04:04:34;;;;;;;23.67;14.30;;;10.80;73.40;;;;;;5101024;27;20582;-42
2022/04/22 04:07:01;;;;;;;22.40;14.00;;;10.80;73.40;;;;;;5099622;28;20807;-42
2022/04/22 04:18:05;;;;;;;24.07;13.67;;;10.80;73.40;;;;;;5042974;28;20465;-41
2022/04/22 04:23:19;;;;;;;19.40;13.67;;;10.80;73.40;;;;;;5092060;28;20485;-41
2022/04/22 04:25:47;;;;;;;22.17;15.20;;;10.70;73.50;;;;;;5100537;27;20889;-42
2022/04/22 04:28:15;;;;;;;26.47;15.20;;;10.70;73.30;;;;;;5090749;28;20825;-41
2022/04/22 04:30:43;;;;;;;23.43;15.13;;;10.70;73.60;;;;;;5097733;27;20473;-42
2022/04/22 04:33:11;;;;;;;21.83;13.40;;;10.70;73.60;;;;;;5082319;28;20490;-42
2022/04/22 04:35:44;;;;;;;24.73;14.07;;;10.70;73.50;;;;;;5097723;28;20455;-42
2022/04/22 04:38:11;;;;;;;17.53;12.60;;;10.70;73.50;;;;;;5102842;28;20458;-42
2022/04/22 04:40:37;;;;;;;17.00;12.10;;;10.80;73.40;;;;;;5084358;28;20463;-42
2022/04/22 04:43:07;;;;;;;19.93;13.03;;;10.70;73.30;;;;;;5100655;27;21037;-42
2022/04/22 04:45:35;;;;;;;23.03;14.40;;;10.70;73.50;;;;;;5100967;28;20950;-42
2022/04/22 04:48:03;;;;;;;19.23;13.00;;;10.70;73.40;;;;;;5098135;27;20512;-42
2022/04/22 04:50:33;;;;;;;23.80;15.20;;;10.70;73.60;;;;;;5101233;27;21246;-42
2022/04/22 04:53:00;;;;;;;22.73;13.10;;;10.70;73.60;;;;;;5100396;28;20454;-42
2022/04/22 04:55:27;;;;;;;22.00;14.80;;;10.80;73.40;;;;;;5099143;27;20462;-41
2022/04/22 04:57:53;;;;;;;24.47;14.37;;;10.80;73.20;;;;;;5081746;28;20462;-41
2022/04/22 05:00:20;;;;;;;19.10;13.10;;;10.80;73.30;;;;;;5100672;27;20469;-41
2022/04/22 05:02:47;;;;;;;17.13;11.97;;;10.80;73.30;;;;;;5100265;28;20866;-41
2022/04/22 05:05:15;;;;;;;20.13;13.20;;;10.80;73.40;;;;;;5100331;28;20478;-41
2022/04/22 05:07:49;;;;;;;18.73;12.57;;;10.80;73.40;;;;;;5099464;28;20975;-42
2022/04/22 05:10:18;;;;;;;18.03;12.60;;;10.80;73.30;;;;;;5093000;27;21071;-42
2022/04/22 05:12:48;;;;;;;22.37;12.90;;;10.80;73.10;;;;;;5100337;28;20592;-41
2022/04/22 05:15:17;;;;;;;21.60;13.40;;;10.90;73.00;;;;;;5084868;28;20545;-41
2022/04/22 05:17:45;;;;;;;19.37;12.47;;;10.90;73.20;;;;;;5082847;28;20468;-42
2022/04/22 05:20:14;;;;;;;19.93;12.60;;;10.90;73.10;;;;;;5099418;28;20488;-41
2022/04/22 05:22:41;;;;;;;19.97;12.47;;;11.00;72.80;;;;;;5088859;28;20492;-41
2022/04/22 05:25:10;;;;;;;18.20;12.13;;;11.00;72.80;;;;;;5084070;28;21757;-41
2022/04/22 05:27:37;;;;;;;16.80;11.77;;;11.00;72.60;;;;;;5102052;27;20472;-41
2022/04/22 05:32:52;;;;;;;17.97;11.50;;;11.00;72.80;;;;;;5101681;27;20467;-42
2022/04/22 05:35:21;;;;;;;18.47;11.17;;;11.00;72.90;;;;;;5098390;28;20459;-42
2022/04/22 05:38:00;;;;;;;19.07;13.33;;;11.00;72.80;;;;;;5083603;28;20579;-41
2022/04/22 05:40:28;;;;;;;17.83;10.20;;;11.10;72.60;;;;;;5095147;28;20462;-41
2022/04/22 05:42:56;;;;;;;15.10;10.93;;;11.10;72.40;;;;;;5096466;27;20494;-41
2022/04/22 05:45:24;;;;;;;15.47;11.17;;;11.20;72.30;;;;;;5100740;28;20455;-41
2022/04/22 05:47:51;;;;;;;17.33;11.93;;;11.20;72.30;;;;;;5095249;28;20943;-41
2022/04/22 05:50:19;;;;;;;17.20;11.03;;;11.20;72.20;;;;;;5097626;28;21171;-41
2022/04/22 05:52:46;;;;;;;15.37;10.03;;;11.20;71.90;;;;;;5085822;28;20538;-41
2022/04/22 05:55:16;;;;;;;16.33;10.97;;;11.30;71.40;;;;;;5091429;28;20475;-41
2022/04/22 05:57:45;;;;;;;17.73;11.33;;;11.30;71.50;;;;;;5099996;28;20471;-41
2022/04/22 06:00:14;;;;;;;15.90;10.30;;;11.30;71.00;;;;;;5101558;28;20472;-41
2022/04/22 06:02:45;;;;;;;13.53;10.20;;;11.40;71.10;;;;;;5100990;28;20485;-42
2022/04/22 06:05:15;;;;;;;14.97;10.53;;;11.50;71.20;;;;;;5095511;27;20454;-42
2022/04/22 06:07:42;;;;;;;14.63;10.50;;;11.50;71.10;;;;;;5074207;28;20457;-42
2022/04/22 06:12:57;;;;;;;16.00;10.70;;;11.60;70.60;;;;;;5097970;28;20846;-42
2022/04/22 06:15:24;;;;;;;16.30;10.40;;;11.60;70.00;;;;;;5089419;28;20473;-42
2022/04/22 06:17:51;;;;;;;12.37;10.17;;;11.70;70.00;;;;;;5103277;27;20468;-42
2022/04/22 06:20:19;;;;;;;15.03;10.93;;;11.80;69.80;;;;;;5076667;28;21115;-42
2022/04/22 06:22:46;;;;;;;13.63;10.63;;;11.70;69.40;;;;;;5083011;28;21003;-42
2022/04/22 06:25:13;;;;;;;14.23;10.27;;;11.80;69.70;;;;;;5104039;27;20465;-42
2022/04/22 06:27:41;;;;;;;13.70;10.40;;;11.90;69.60;;;;;;5097100;28;21024;-41
2022/04/22 06:30:10;;;;;;;11.27;9.00;;;11.90;69.30;;;;;;5098479;28;20496;-42
2022/04/22 06:32:39;;;;;;;13.50;9.30;;;12.10;69.10;;;;;;5081757;28;20852;-42
2022/04/22 06:35:07;;;;;;;13.57;10.13;;;12.10;68.90;;;;;;5099575;28;20465;-42
2022/04/22 06:37:40;;;;;;;14.57;10.33;;;12.20;68.80;;;;;;5097398;28;20966;-41
2022/04/22 06:45:47;;;;;;;12.83;9.50;;;12.20;67.60;;;;;;5099267;28;20447;-42
2022/04/22 06:48:14;;;;;;;13.60;10.03;;;12.30;67.80;;;;;;5096310;28;20444;-42
2022/04/22 06:51:03;;;;;;;12.77;9.20;;;12.40;67.80;;;;;;5099213;28;20451;-42
2022/04/22 06:53:30;;;;;;;16.20;10.30;;;12.40;66.90;;;;;;5077840;28;20839;-42
2022/04/22 06:56:00;;;;;;;10.27;9.17;;;12.50;66.80;;;;;;5084693;28;20458;-42
2022/04/22 06:58:30;;;;;;;14.80;9.87;;;12.50;66.30;;;;;;5098818;28;20493;-42
2022/04/22 07:00:57;;;;;;;11.33;8.87;;;12.70;66.80;;;;;;5100895;27;20949;-42
2022/04/22 07:03:24;;;;;;;12.30;9.43;;;12.80;66.20;;;;;;5095391;27;20883;-42
2022/04/22 07:05:52;;;;;;;13.77;9.60;;;12.90;66.40;;;;;;5098277;28;20857;-42
2022/04/22 07:08:20;;;;;;;11.40;8.13;;;13.00;66.40;;;;;;5092634;28;20463;-42
2022/04/22 07:10:52;;;;;;;10.63;8.77;;;13.10;66.20;;;;;;5083016;28;20543;-42
2022/04/22 07:13:19;;;;;;;12.63;9.90;;;13.20;64.40;;;;;;5086666;28;20467;-42
2022/04/22 07:15:49;;;;;;;14.27;9.07;;;13.30;64.10;;;;;;5099166;28;20453;-42
2022/04/22 07:18:17;;;;;;;11.73;8.90;;;13.40;63.80;;;;;;5097783;28;20831;-42
2022/04/22 07:20:44;;;;;;;10.27;8.47;;;13.50;64.00;;;;;;5085328;28;20542;-42
2022/04/22 07:23:12;;;;;;;13.10;9.70;;;13.70;64.10;;;;;;5101568;28;20577;-42
2022/04/22 07:25:39;;;;;;;9.23;8.23;;;13.70;62.70;;;;;;5089471;28;20816;-42
2022/04/22 07:28:06;;;;;;;12.73;9.93;;;13.90;63.00;;;;;;5101613;28;20463;-42
2022/04/22 07:30:33;;;;;;;16.90;9.90;;;14.00;61.90;;;;;;5095922;28;20462;-42
2022/04/22 07:33:00;;;;;;;11.27;8.43;;;14.10;62.60;;;;;;5100643;28;20961;-42
2022/04/22 07:35:27;;;;;;;12.67;9.00;;;14.30;61.30;;;;;;5101885;28;20474;-42
2022/04/22 07:37:54;;;;;;;12.70;9.20;;;14.40;61.00;;;;;;5099689;28;20562;-42
2022/04/22 07:40:22;;;;;;;10.13;8.13;;;14.50;60.70;;;;;;5102155;28;20960;-42
2022/04/22 07:48:37;;;;;;;10.17;9.10;;;14.90;60.20;;;;;;5100499;28;20443;-42
2022/04/22 07:51:04;;;;;;;11.23;9.30;;;15.00;58.40;;;;;;5095313;28;20462;-42
2022/04/22 07:53:32;;;;;;;12.30;9.00;;;15.10;58.50;;;;;;5097322;28;20471;-41
2022/04/22 07:55:59;;;;;;;10.20;9.00;;;15.30;58.70;;;;;;5098463;28;20541;-42
2022/04/22 07:58:27;;;;;;;12.77;9.23;;;15.40;58.10;;;;;;5097322;28;20459;-43
2022/04/22 08:00:54;;;;;;;24.13;10.93;;;15.60;57.50;;;;;;5098339;28;20519;-43
2022/04/22 08:03:21;;;;;;;11.53;8.73;;;15.70;57.20;;;;;;5080394;28;20505;-43
2022/04/22 08:05:47;;;;;;;10.93;8.50;;;15.90;56.70;;;;;;5101632;28;20465;-42
2022/04/22 08:08:14;;;;;;;11.17;8.80;;;16.00;55.70;;;;;;5095562;28;20464;-43
2022/04/22 08:10:45;;;;;;;10.90;9.03;;;16.10;56.30;;;;;;5097906;28;20465;-43
2022/04/22 08:13:11;;;;;;;11.10;8.60;;;16.30;56.40;;;;;;5099789;28;20474;-43
2022/04/22 08:15:39;;;;;;;13.07;8.63;;;16.50;56.00;;;;;;5100189;28;20463;-43
2022/04/22 08:18:06;;;;;;;10.23;8.60;;;16.60;55.70;;;;;;5087735;28;20470;-42
2022/04/22 08:20:33;;;;;;;11.17;8.97;;;16.80;55.20;;;;;;5094946;28;20460;-43
2022/04/22 08:23:01;;;;;;;10.70;9.30;;;16.90;54.20;;;;;;5085552;28;20464;-43
2022/04/22 08:25:28;;;;;;;9.60;8.60;;;17.10;53.00;;;;;;5095663;28;20463;-43
2022/04/22 08:27:55;;;;;;;10.73;8.70;;;17.20;53.70;;;;;;5096599;28;20453;-43
2022/04/22 08:30:23;;;;;;;11.10;8.63;;;17.40;53.80;;;;;;5096530;28;20463;-44
2022/04/22 08:32:50;;;;;;;14.57;9.30;;;17.50;52.90;;;;;;5100623;28;20471;-42
2022/04/22 08:35:16;;;;;;;10.57;7.73;;;17.60;52.20;;;;;;5100248;28;20610;-42
2022/04/22 08:37:44;;;;;;;12.30;8.67;;;17.70;52.20;;;;;;5099163;27;20756;-43
2022/04/22 08:40:12;;;;;;;11.97;9.30;;;17.80;51.90;;;;;;5100230;28;20563;-43
2022/04/22 08:42:41;;;;;;;10.90;8.70;;;18.00;51.20;;;;;;5098197;28;20552;-43
2022/04/22 08:45:09;;;;;;;11.90;9.63;;;18.10;51.80;;;;;;5101691;28;20492;-43
2022/04/22 08:50:30;;;;;;;9.10;7.90;;;18.50;50.60;;;;;;5097050;28;20454;-42
2022/04/22 08:53:06;;;;;;;10.27;7.87;;;18.60;48.90;;;;;;5103018;27;20471;-42
2022/04/22 08:55:33;;;;;;;10.97;8.90;;;18.70;50.20;;;;;;5085899;28;20465;-43
2022/04/22 08:58:01;;;;;;;9.03;8.17;;;18.70;48.10;;;;;;5099291;28;20951;-42
2022/04/22 09:00:30;;;;;;;8.70;7.83;;;18.90;48.00;;;;;;5097033;28;20819;-42
2022/04/22 09:02:57;;;;;;;8.70;7.50;;;19.00;48.00;;;;;;5061318;28;20462;-42
2022/04/22 09:05:25;;;;;;;8.23;6.80;;;19.20;47.50;;;;;;5100937;28;20501;-42
2022/04/22 09:07:53;;;;;;;8.00;7.17;;;19.40;48.50;;;;;;5100797;27;20456;-42
2022/04/22 09:10:20;;;;;;;10.87;8.03;;;19.60;48.20;;;;;;5099730;27;20459;-42
2022/04/22 09:12:52;;;;;;;8.77;7.87;;;19.80;47.80;;;;;;5082888;28;20464;-42
2022/04/22 09:15:24;;;;;;;8.63;7.17;;;19.90;46.90;;;;;;5084770;28;20472;-42
2022/04/22 09:17:57;;;;;;;8.83;7.53;;;20.20;46.40;;;;;;5099518;27;20452;-42
2022/04/22 09:20:30;;;;;;;9.30;8.00;;;20.50;46.30;;;;;;5082479;28;20495;-42
2022/04/22 09:22:57;;;;;;;8.83;6.80;;;20.60;45.60;;;;;;5101213;28;20547;-42
2022/04/22 09:25:25;;;;;;;8.50;7.30;;;20.70;44.60;;;;;;5100715;27;20487;-42
2022/04/22 09:27:52;;;;;;;10.27;7.70;;;21.00;45.10;;;;;;5098995;27;20498;-42
2022/04/22 09:30:31;;;;;;;8.60;7.57;;;21.30;45.10;;;;;;5099206;28;20471;-43
2022/04/22 09:32:58;;;;;;;9.80;8.23;;;21.50;43.90;;;;;;5102195;28;20556;-43
2022/04/22 09:35:26;;;;;;;10.33;7.37;;;21.60;43.20;;;;;;5084300;28;20532;-43
2022/04/22 09:43:33;;;;;;;9.57;7.73;;;22.30;43.50;;;;;;5096440;28;20460;-47
2022/04/22 09:46:01;;;;;;;8.40;7.50;;;22.60;41.80;;;;;;5100055;27;20459;-47
2022/04/22 09:48:41;;;;;;;7.77;6.70;;;22.60;41.00;;;;;;5086827;28;20535;-47
2022/04/22 09:51:24;;;;;;;8.17;7.40;;;22.60;41.20;;;;;;5103185;28;20444;-47
2022/04/22 09:54:14;;;;;;;8.83;6.20;;;22.90;42.60;;;;;;5100302;28;21078;-47
2022/04/22 09:56:57;;;;;;;7.90;6.43;;;23.10;42.30;;;;;;5067767;28;20911;-47
2022/04/22 09:59:32;;;;;;;10.20;7.47;;;23.40;41.30;;;;;;5089346;28;20967;-47
2022/04/22 10:02:01;;;;;;;7.50;6.50;;;23.60;40.60;;;;;;5098150;28;21092;-48
2022/04/22 10:04:36;;;;;;;7.50;6.80;;;23.80;41.00;;;;;;5097799;28;20484;-48
2022/04/22 10:07:04;;;;;;;9.83;8.93;;;24.00;40.80;;;;;;5088615;28;20551;-48
2022/04/22 10:09:35;;;;;;;8.60;7.10;;;24.20;39.20;;;;;;5099717;27;20853;-48
2022/04/22 10:12:08;;;;;;;10.77;5.97;;;24.30;40.20;;;;;;5094548;27;20579;-48
2022/04/22 10:14:38;;;;;;;8.33;7.43;;;24.40;39.80;;;;;;5099465;27;20542;-48
2022/04/22 10:17:06;;;;;;;7.70;6.90;;;24.40;38.50;;;;;;5102224;27;20452;-48
2022/04/22 10:19:34;;;;;;;8.20;7.10;;;24.60;39.60;;;;;;5082607;28;20580;-48
2022/04/22 10:22:02;;;;;;;7.50;6.70;;;24.70;39.20;;;;;;5103151;28;20469;-47
2022/04/22 10:24:31;;;;;;;8.17;7.30;;;24.70;38.70;;;;;;5103630;27;20487;-47
2022/04/22 10:27:01;;;;;;;7.10;6.40;;;24.80;38.20;;;;;;5097435;28;20816;-47
2022/04/22 10:29:35;;;;;;;7.13;6.43;;;24.70;38.90;;;;;;5082022;28;20447;-47
2022/04/22 10:32:05;;;;;;;9.23;7.77;;;24.70;38.40;;;;;;5100896;28;20487;-47
2022/04/22 10:34:43;;;;;;;8.90;6.70;;;24.40;37.70;;;;;;5066796;28;20452;-47
2022/04/22 10:37:20;;;;;;;7.13;6.53;;;24.30;38.00;;;;;;5085571;28;20466;-47
2022/04/22 10:39:52;;;;;;;7.70;6.50;;;24.40;38.30;;;;;;5077595;28;20450;-47
2022/04/22 10:42:37;;;;;;;10.00;6.67;;;24.60;38.80;;;;;;5099842;28;20454;-48
2022/04/22 10:47:58;;;;;;;7.20;6.50;;;24.80;38.40;;;;;;5099565;28;20470;-48
2022/04/22 10:50:29;;;;;;;6.63;5.90;;;24.60;37.50;;;;;;5079114;28;20452;-48
2022/04/22 10:53:02;;;;;;;6.57;5.90;;;24.70;38.90;;;;;;5099306;27;20462;-48
2022/04/22 10:55:49;;;;;;;7.37;6.53;;;24.80;38.70;;;;;;5094872;28;20491;-48
2022/04/22 10:58:36;;;;;;;6.80;6.20;;;24.80;37.50;;;;;;5081382;27;20991;-48
2022/04/22 11:01:03;;;;;;;8.57;7.67;;;24.90;37.90;;;;;;5102398;28;20546;-48
2022/04/22 11:03:31;;;;;;;7.70;6.93;;;24.80;37.10;;;;;;5103378;28;20452;-48
2022/04/22 11:06:00;;;;;;;8.17;6.20;;;24.80;37.90;;;;;;5101654;27;20984;-48
2022/04/22 11:08:31;;;;;;;6.67;6.07;;;24.90;38.40;;;;;;5100227;28;20461;-48
2022/04/22 11:11:01;;;;;;;8.10;7.30;;;24.50;37.10;;;;;;5088284;28;20997;-48
2022/04/22 11:13:33;;;;;;;8.33;7.27;;;24.40;37.50;;;;;;5081481;27;20462;-48
2022/04/22 11:16:19;;;;;;;7.00;6.10;;;24.10;37.10;;;;;;5084529;28;20475;-48
2022/04/22 11:19:10;;;;;;;6.73;6.13;;;23.80;37.90;;;;;;5099076;27;20870;-48
2022/04/22 11:21:37;;;;;;;7.10;6.40;;;23.70;39.40;;;;;;5096452;28;20444;-48
2022/04/22 11:24:27;;;;;;;6.97;6.27;;;23.80;38.70;;;;;;5096306;28;20525;-47
2022/04/22 11:27:06;;;;;;;6.97;6.37;;;23.80;38.80;;;;;;5097838;28;20474;-47
2022/04/22 11:29:32;;;;;;;5.87;5.30;;;23.80;40.30;;;;;;5102395;28;20463;-47
2022/04/22 11:32:11;;;;;;;8.43;6.23;;;23.70;39.80;;;;;;5097264;28;20483;-47
2022/04/22 11:35:00;;;;;;;6.50;5.90;;;23.70;41.00;;;;;;5079139;28;20464;-47
2022/04/22 11:37:27;;;;;;;7.23;6.47;;;23.60;40.70;;;;;;5100119;28;20455;-48
2022/04/22 11:39:53;;;;;;;7.43;6.77;;;23.60;41.40;;;;;;5101117;28;20460;-48
2022/04/22 11:42:20;;;;;;;6.40;5.90;;;23.50;41.20;;;;;;5082337;28;20447;-46
2022/04/22 11:45:04;;;;;;;7.80;5.80;;;23.30;39.40;;;;;;5095374;28;20516;-47
2022/04/22 11:47:31;;;;;;;7.60;6.53;;;22.90;39.40;;;;;;5070459;28;20452;-47
2022/04/22 11:49:59;;;;;;;7.60;5.93;;;22.70;39.20;;;;;;5083893;28;20825;-46
2022/04/22 11:52:29;;;;;;;6.63;6.03;;;22.60;40.00;;;;;;5083632;28;20474;-47
2022/04/22 11:55:04;;;;;;;6.30;5.70;;;22.60;39.70;;;;;;5101821;28;20451;-48
2022/04/22 11:57:39;;;;;;;7.43;6.37;;;22.70;42.00;;;;;;5099148;28;20464;-48
2022/04/22 12:05:51;;;;;;;6.63;5.90;;;22.90;41.80;;;;;;5097835;28;20491;-48
2022/04/22 12:08:19;;;;;;;6.13;5.20;;;22.70;39.50;;;;;;5105848;27;20455;-48
2022/04/22 12:10:48;;;;;;;6.07;5.37;;;22.60;39.90;;;;;;5085953;28;21343;-47
2022/04/22 12:13:16;;;;;;;6.20;5.60;;;22.50;40.30;;;;;;5101602;28;20458;-48
2022/04/22 12:15:46;;;;;;;6.27;5.47;;;22.60;41.80;;;;;;5099783;28;20491;-48
2022/04/22 12:18:30;;;;;;;6.47;5.83;;;22.90;42.60;;;;;;5098101;27;20517;-47
2022/04/22 12:20:58;;;;;;;6.50;5.87;;;23.10;40.30;;;;;;5104758;27;20503;-48
2022/04/22 12:23:32;;;;;;;5.90;5.40;;;23.10;40.60;;;;;;5072227;28;20824;-48
2022/04/22 12:26:00;;;;;;;7.00;6.30;;;23.00;39.80;;;;;;5101890;28;20496;-48
2022/04/22 12:28:27;;;;;;;6.43;5.73;;;23.00;39.70;;;;;;5102040;28;21060;-48
2022/04/22 12:30:54;;;;;;;9.30;6.57;;;23.00;41.30;;;;;;5097788;28;20543;-48
2022/04/22 12:33:25;;;;;;;6.30;5.70;;;23.10;41.60;;;;;;5100824;28;20456;-48
2022/04/22 12:36:10;;;;;;;6.90;6.03;;;23.20;40.80;;;;;;5101283;27;20807;-48
2022/04/22 12:38:37;;;;;;;5.70;5.20;;;23.10;41.90;;;;;;5099882;28;20481;-47
2022/04/22 12:41:17;;;;;;;6.60;5.23;;;23.10;41.60;;;;;;5097713;27;20448;-48
2022/04/22 12:43:52;;;;;;;10.80;5.40;;;23.10;40.10;;;;;;5099491;28;20501;-48
2022/04/22 12:52:19;;;;;;;8.00;5.53;;;23.20;40.50;;;;;;5099868;28;20507;-48
2022/04/22 12:54:47;;;;;;;7.90;5.40;;;23.20;40.30;;;;;;5101757;27;20490;-48
2022/04/22 12:57:25;;;;;;;6.07;5.47;;;23.20;39.20;;;;;;5081750;28;20472;-48
2022/04/22 12:59:54;;;;;;;6.17;5.57;;;23.30;40.40;;;;;;5104171;28;20450;-48
2022/04/22 13:02:30;;;;;;;6.43;5.83;;;23.30;40.90;;;;;;5099459;28;20467;-48
2022/04/22 13:05:01;;;;;;;4.83;4.20;;;23.20;41.00;;;;;;5093726;27;20493;-47
2022/04/22 13:07:38;;;;;;;5.87;5.03;;;23.30;41.20;;;;;;5101829;28;20459;-48
2022/04/22 13:10:05;;;;;;;6.10;5.50;;;23.30;41.90;;;;;;5102603;27;21002;-47
2022/04/22 13:12:34;;;;;;;7.27;5.67;;;23.30;40.60;;;;;;5102805;28;20459;-48
2022/04/22 13:15:01;;;;;;;5.70;5.20;;;23.40;40.10;;;;;;5103188;27;20464;-48
2022/04/22 13:17:28;;;;;;;6.10;5.50;;;23.30;41.10;;;;;;5101077;28;20456;-47
2022/04/22 13:19:54;;;;;;;6.13;5.53;;;23.30;40.40;;;;;;5103819;27;20479;-47
2022/04/22 13:22:21;;;;;;;5.90;5.30;;;23.10;39.10;;;;;;5102114;27;20778;-48
2022/04/22 13:24:54;;;;;;;12.00;6.00;;;23.10;41.00;;;;;;5100262;27;20485;-48
2022/04/22 13:27:27;;;;;;;6.03;5.43;;;23.00;38.90;;;;;;5093395;27;20472;-48
2022/04/22 13:29:54;;;;;;;8.50;5.67;;;22.90;40.80;;;;;;5099451;28;20492;-48
2022/04/22 13:32:21;;;;;;;6.00;4.87;;;23.00;41.00;;;;;;5082621;28;20536;-48
2022/04/22 13:34:47;;;;;;;6.07;5.57;;;23.10;40.70;;;;;;5097840;28;20548;-48
2022/04/22 13:37:14;;;;;;;6.10;5.20;;;23.10;40.00;;;;;;5099270;27;20459;-48
2022/04/22 13:39:42;;;;;;;8.30;6.53;;;23.00;39.50;;;;;;5103881;28;20862;-48
2022/04/22 13:42:09;;;;;;;6.10;5.50;;;22.90;39.40;;;;;;5099825;28;20470;-47
2022/04/22 13:52:52;;;;;;;6.60;5.30;;;23.00;41.20;;;;;;5101016;28;20454;-47
2022/04/22 13:55:19;;;;;;;7.07;5.70;;;22.90;40.00;;;;;;5086495;28;20460;-47
2022/04/22 13:57:46;;;;;;;5.60;5.10;;;22.80;40.20;;;;;;5102746;27;20969;-47
2022/04/22 14:00:13;;;;;;;5.83;5.23;;;22.70;40.00;;;;;;5100184;28;20476;-47
2022/04/22 14:02:40;;;;;;;6.40;5.80;;;22.50;39.90;;;;;;5099601;27;20456;-47